Flight Track Log - Related Links

Times and Time Zones

All times are in EDT time to prevent confusion due to time zone crossing. See the ACA754 flight status page for this flight to view local times or setup timezone preferences in your user account.

Time Position Orientation Groundspeed Altitude Reporting Facility
EDT Latitude Longitude Course Direction KTS MPH feet Rate Location/Type
Thu 01:14:15 AM 37.6500 -122.4000 90° East 187 215 1,600  Level Northern Cal TRACON
Thu 01:15:15 AM 37.7000 -122.3500 38° Northeast 252 290 3,500 2,200 Climbing Northern Cal TRACON
Thu 01:16:15 AM 37.7667 -122.3167 22° Northeast 282 325 6,000 2,358 Climbing Northern Cal TRACON
Thu 01:17:00 AM 37.9608 -122.1371 84° East  Level FlightAware Approximate
Thu 01:18:00 AM 37.9735 -121.9726 72° East  Level FlightAware Approximate
Thu 01:18:08 AM 37.8342 -122.1661 60° Northeast 296 341 10,300  Level Oakland Center
Thu 01:19:00 AM 37.9833 -121.8083 90° East  Level FlightAware Approximate
Thu 01:19:09 AM 37.8581 -122.0594 74° East 310 357 12,500  Level Oakland Center
Thu 01:20:10 AM 37.8817 -121.9428 76° East 332 382 13,500 1,279 Climbing Oakland Center
Thu 01:21:11 AM 37.9106 -121.8078 75° East 383 441 15,100 1,525 Climbing Oakland Center
Thu 01:22:12 AM 37.9397 -121.6661 75° East 411 473 16,600 1,721 Climbing Oakland Center
Thu 01:23:13 AM 37.9689 -121.5208 76° East 421 484 18,600 1,623 Climbing Oakland Center
Thu 01:24:14 AM 37.9997 -121.3742 75° East 429 494 19,900 1,488 Climbing Oakland Center
Thu 01:25:14 AM 38.0372 -121.1894 75° East 450 518 21,600 1,537 Climbing Oakland Center
Thu 01:26:15 AM 38.0689 -121.0317 76° East 463 533 23,000 1,328 Climbing Oakland Center
Thu 01:27:16 AM 38.1039 -120.8733 74° East 468 539 24,300 1,082 Climbing Oakland Center
Thu 01:28:17 AM 38.1444 -120.7144 72° East 475 547 25,200 934 Climbing Oakland Center
Thu 01:29:18 AM 38.1825 -120.5494 74° East 487 560 26,200 934 Climbing Oakland Center
Thu 01:30:19 AM 38.2225 -120.3814 73° East 496 571 27,100 934 Climbing Oakland Center
Thu 01:31:20 AM 38.2583 -120.2086 75° East 505 581 28,100 1,033 Climbing Oakland Center
Thu 01:32:21 AM 38.2864 -120.0314 79° East 514 592 29,200 1,041 Climbing Oakland Center
Thu 01:33:21 AM 38.3153 -119.8567 78° East 507 583 30,200 1,041 Climbing Oakland Center
Thu 01:34:22 AM 38.3444 -119.6839 78° East 503 579 31,300 970 Climbing Oakland Center
Thu 01:36:08 AM 38.3931 -119.3819 78° East 488 562 32,900 862 Climbing Salt Lake Center
Thu 01:37:09 AM 38.4200 -119.2144 78° East 487 560 33,700 787 Climbing Salt Lake Center
Thu 01:38:10 AM 38.4542 -119.0125 78° East 487 560 34,500 446 Climbing Salt Lake Center
Thu 01:39:10 AM 38.4819 -118.8456 78° East 487 560 34,600 248 Climbing Salt Lake Center
Thu 01:40:11 AM 38.5097 -118.6742 78° East 490 564 35,000 197 Climbing Salt Lake Center
Thu 01:41:12 AM 38.5361 -118.5003 79° East 498 573 35,000  Level Salt Lake Center
Thu 01:42:12 AM 38.5631 -118.3189 79° East 508 585 35,000  Level Salt Lake Center
Thu 01:43:13 AM 38.5914 -118.1372 79° East 515 593 35,000  Level Salt Lake Center
Thu 01:44:30 AM 38.6256 -117.9192 79° East 517 595 35,000  Level Oakland Center
Thu 01:45:30 AM 38.6522 -117.7408 79° East 510 587 35,000  Level Oakland Center
Thu 01:46:31 AM 38.6783 -117.5650 79° East 502 578 35,000  Level Oakland Center
Thu 01:47:32 AM 38.7042 -117.3856 79° East 507 583 35,000  Level Oakland Center
Thu 01:48:33 AM 38.7303 -117.2039 80° East 514 592 35,000 -50 Level Oakland Center
Thu 01:49:33 AM 38.7556 -117.0231 80° East 513 590 34,900  Descending Oakland Center
Thu 01:50:34 AM 38.7811 -116.8392 80° East 519 597 35,000 103 Climbing Oakland Center
Thu 01:51:30 AM 38.8050 -116.6561 80° East 519 597 35,100 51 Climbing Salt Lake Center
Thu 01:52:31 AM 38.8289 -116.4731 80° East 519 597 35,100 -49 Level Salt Lake Center
Thu 01:53:32 AM 38.8531 -116.2897 80° East 519 597 35,000 -50 Descending Salt Lake Center
Thu 01:54:32 AM 38.8772 -116.1047 80° East 521 600 35,000  Level Salt Lake Center
Thu 01:55:33 AM 38.9008 -115.9208 81° East 523 602 35,000  Level Salt Lake Center
Thu 01:56:33 AM 38.9247 -115.7364 80° East 523 602 35,000  Level Salt Lake Center
Thu 01:57:34 AM 38.9486 -115.5528 80° East 523 602 35,000  Level Salt Lake Center
Thu 01:58:34 AM 38.9761 -115.3472 80° East 525 604 35,000  Level Salt Lake Center
Thu 01:59:35 AM 39.0000 -115.1617 81° East 526 605 35,000  Level Salt Lake Center
Thu 02:00:35 AM 39.0228 -114.9783 81° East 525 604 35,000  Level Salt Lake Center
Thu 02:01:36 AM 39.0458 -114.7967 81° East 519 597 35,000  Level Salt Lake Center
Thu 02:02:37 AM 39.0694 -114.6136 81° East 519 597 35,000  Level Salt Lake Center
Thu 02:03:37 AM 39.0911 -114.4336 81° East 515 593 35,000  Level Salt Lake Center
Thu 02:04:38 AM 39.1131 -114.2547 81° East 511 588 35,000  Level Salt Lake Center
Thu 02:05:38 AM 39.1339 -114.0742 81° East 509 586 35,000  Level Salt Lake Center
Thu 02:06:39 AM 39.1556 -113.8950 81° East 509 586 35,000  Level Salt Lake Center
Thu 02:07:39 AM 39.1747 -113.7158 82° East 508 585 35,000  Level Salt Lake Center
Thu 02:08:40 AM 39.1947 -113.5381 82° East 506 582 35,000  Level Salt Lake Center
Thu 02:09:41 AM 39.2139 -113.3592 82° East 505 581 35,000  Level Salt Lake Center
Thu 02:10:41 AM 39.2331 -113.1822 82° East 504 580 35,000  Level Salt Lake Center
Thu 02:11:42 AM 39.2511 -113.0072 82° East 495 570 35,000 50 Level Salt Lake Center
Thu 02:12:42 AM 39.2689 -112.8308 83° East 495 570 35,100  Climbing Salt Lake Center
Thu 02:13:43 AM 39.2889 -112.6397 82° East 495 570 35,000 -99 Descending Salt Lake Center
Thu 02:14:43 AM 39.3075 -112.4708 82° East 487 560 34,900 -50 Descending Salt Lake Center
Thu 02:15:44 AM 39.3389 -112.3003 77° East 488 562 34,900 50 Level Salt Lake Center
Thu 02:16:44 AM 39.3697 -112.1294 77° East 489 563 35,000 100 Climbing Salt Lake Center
Thu 02:17:44 AM 39.4000 -111.9567 77° East 493 567 35,100  Climbing Salt Lake Center
Thu 02:18:45 AM 39.4297 -111.7850 77° East 493 567 35,000 -50 Descending Salt Lake Center
Thu 02:19:45 AM 39.4594 -111.6128 77° East 493 567 35,000  Level Salt Lake Center
Thu 02:20:46 AM 39.4883 -111.4439 77° East 489 563 35,000  Level Salt Lake Center
Thu 02:21:46 AM 39.5172 -111.2672 78° East 488 562 35,000  Level Salt Lake Center
Thu 02:22:47 AM 39.5436 -111.1078 78° East 477 549 35,000 -50 Level Salt Lake Center
Thu 02:23:47 AM 39.5764 -110.9142 78° East 489 563 34,900 50 Descending Salt Lake Center
Thu 02:24:48 AM 39.6031 -110.7464 78° East 493 567 35,100 50 Climbing Salt Lake Center
Thu 02:25:48 AM 39.6333 -110.5794 77° East 494 568 35,000 -50 Descending Salt Lake Center
Thu 02:26:49 AM 39.6628 -110.4147 77° East 494 568 35,000  Level Salt Lake Center
Thu 02:27:49 AM 39.6961 -110.2197 77° East 494 568 35,000  Level Salt Lake Center
Thu 02:28:50 AM 39.7250 -110.0550 77° East 493 567 35,000  Level Salt Lake Center
Thu 02:29:50 AM 39.7528 -109.8914 77° East 486 559 35,000  Level Salt Lake Center
Thu 02:30:50 AM 39.7844 -109.6981 78° East 486 559 35,000  Level Salt Lake Center
Thu 02:31:27 AM 39.7981 -109.6144 78° East 487 560 35,000  Level Denver Center
Thu 02:32:27 AM 39.8303 -109.4211 78° East 488 562 35,000 50 Level Denver Center
Thu 02:33:27 AM 39.8583 -109.2544 78° East 489 563 35,100  Climbing Denver Center
Thu 02:34:28 AM 39.8842 -109.0875 79° East 489 563 35,000 -50 Descending Denver Center
Thu 02:35:28 AM 39.9117 -108.9200 78° East 489 563 35,000  Level Denver Center
Thu 02:36:28 AM 39.9433 -108.7253 78° East 489 563 35,000  Level Denver Center
Thu 02:37:28 AM 39.9689 -108.5575 79° East 490 564 35,000  Level Denver Center
Thu 02:38:29 AM 39.9956 -108.3886 78° East 490 564 35,000  Level Denver Center
Thu 02:39:29 AM 40.0206 -108.2208 79° East 491 565 35,000  Level Denver Center
Thu 02:40:29 AM 40.0489 -108.0258 79° East 491 565 35,000  Level Denver Center
Thu 02:41:30 AM 40.0781 -107.8592 77° East 490 564 35,000  Level Denver Center
Thu 02:42:30 AM 40.1189 -107.6961 72° East 491 565 35,000  Level Denver Center
Thu 02:43:30 AM 40.1561 -107.5319 73° East 491 565 35,000  Level Denver Center
Thu 02:44:31 AM 40.2011 -107.3439 73° East 487 560 35,000  Level Denver Center
Thu 02:45:31 AM 40.2367 -107.1819 74° East 485 558 35,000 -50 Level Denver Center
Thu 02:46:31 AM 40.2733 -107.0208 73° East 485 558 34,900  Descending Denver Center
Thu 02:47:44 AM 40.3131 -106.8550 73° East 484 557 35,000 45 Climbing Denver Center
Thu 02:48:44 AM 40.3589 -106.6528 73° East 484 557 35,000  Level Denver Center
Thu 02:49:44 AM 40.3944 -106.4886 74° East 477 549 35,000  Level Denver Center
Thu 02:50:45 AM 40.4372 -106.3022 73° East 476 548 35,000  Level Denver Center
Thu 02:51:45 AM 40.4683 -106.1544 74° East 475 547 35,000  Level Denver Center
Thu 02:52:45 AM 40.5050 -105.9856 74° East 477 549 35,000  Level Denver Center
Thu 02:53:46 AM 40.5381 -105.8153 76° East 480 552 35,000 50 Level Denver Center
Thu 02:54:46 AM 40.5703 -105.6425 76° East 481 554 35,100  Climbing Denver Center
Thu 02:55:46 AM 40.6028 -105.4700 76° East 484 557 35,000 -50 Descending Denver Center
Thu 02:56:47 AM 40.6356 -105.2972 76° East 485 558 35,000  Level Denver Center
Thu 02:57:47 AM 40.6686 -105.1233 76° East 486 559 35,000  Level Denver Center
Thu 02:58:47 AM 40.6986 -104.9506 77° East 485 558 35,000  Level Denver Center
Thu 02:59:48 AM 40.7306 -104.7800 76° East 483 556 35,000  Level Denver Center
Thu 03:00:48 AM 40.7608 -104.6133 76° East 474 545 35,000  Level Denver Center
Thu 03:02:13 AM 40.7972 -104.4114 77° East 472 543 35,000  Level Denver Center
Thu 03:03:13 AM 40.8331 -104.2092 77° East 472 543 35,000  Level Denver Center
Thu 03:04:13 AM 40.8636 -104.0411 76° East 472 543 35,000  Level Denver Center
Thu 03:05:14 AM 40.8931 -103.8728 77° East 472 543 35,000  Level Denver Center
Thu 03:06:14 AM 40.9217 -103.7017 77° East 474 545 35,000  Level Denver Center
Thu 03:07:15 AM 40.9567 -103.4975 77° East 476 548 35,000  Level Denver Center
Thu 03:08:15 AM 40.9817 -103.3514 77° East 476 548 35,000  Level Denver Center
Thu 03:09:15 AM 41.0147 -103.1603 77° East 476 548 35,000  Level Denver Center
Thu 03:10:16 AM 41.0422 -102.9981 77° East 476 548 35,000  Level Denver Center
Thu 03:11:16 AM 41.0717 -102.8194 78° East 474 545 35,000  Level Denver Center
Thu 03:12:16 AM 41.0975 -102.6583 78° East 470 541 35,000 50 Level Denver Center
Thu 03:13:17 AM 41.1242 -102.4972 78° East 470 541 35,100 298 Climbing Denver Center
Thu 03:14:17 AM 41.1597 -102.3103 76° East 468 539 35,600 595 Climbing Denver Center
Thu 03:15:18 AM 41.1917 -102.1503 75° East 468 539 36,300 595 Climbing Denver Center
Thu 03:16:18 AM 41.2228 -101.9914 75° East 466 536 36,800 350 Climbing Denver Center
Thu 03:17:18 AM 41.2536 -101.8319 76° East 465 535 37,000 99 Climbing Denver Center
Thu 03:18:19 AM 41.2903 -101.6436 75° East 467 537 37,000  Level Denver Center
Thu 03:19:19 AM 41.3225 -101.4761 76° East 481 554 37,000  Level Denver Center
Thu 03:20:20 AM 41.3533 -101.3097 76° East 481 554 37,000  Level Denver Center
Thu 03:21:20 AM 41.3903 -101.1172 76° East 481 554 37,000  Level Denver Center
Thu 03:22:20 AM 41.4219 -100.9514 76° East 481 554 37,000  Level Denver Center
Thu 03:23:21 AM 41.4517 -100.7867 76° East 479 551 37,000 50 Level Denver Center
Thu 03:24:21 AM 41.4831 -100.6203 76° East 478 550 37,100  Climbing Denver Center
Thu 03:25:22 AM 41.5175 -100.4275 77° East 478 550 37,000 -50 Descending Denver Center
Thu 03:26:22 AM 41.5469 -100.2617 77° East 478 550 37,000  Level Denver Center
Thu 03:27:22 AM 41.5764 -100.0956 77° East 478 550 37,000  Level Denver Center
Thu 03:28:23 AM 41.6064 -99.9281 76° East 479 551 37,000  Level Denver Center
Thu 03:29:23 AM 41.6397 -99.7336 77° East 479 551 37,000  Level Denver Center
Thu 03:30:23 AM 41.6644 -99.5850 77° East 482 555 37,000  Level Denver Center
Thu 03:31:24 AM 41.6944 -99.4089 77° East 482 555 37,000  Level Denver Center
Thu 03:32:24 AM 41.7247 -99.2317 77° East 482 555 37,000  Level Denver Center
Thu 03:33:25 AM 41.7553 -99.0547 77° East 482 555 37,000 -50 Level Denver Center
Thu 03:34:25 AM 41.7853 -98.8742 77° East 488 562 36,900  Descending Denver Center
Thu 03:35:26 AM 41.8156 -98.6900 78° East 496 571 37,000 99 Climbing Denver Center
Thu 03:36:26 AM 41.8450 -98.5056 78° East 500 575 37,100 47 Climbing Denver Center
Thu 03:37:35 AM 41.8822 -98.2853 77° East 500 575 37,100 -47 Level Minneapolis Center
Thu 03:38:35 AM 41.9103 -98.1100 78° East 501 577 37,000 -50 Descending Minneapolis Center
Thu 03:39:35 AM 41.9369 -97.9314 79° East 492 566 37,000 -50 Level Minneapolis Center
Thu 03:40:35 AM 41.9656 -97.7539 78° East 490 564 36,900  Descending Minneapolis Center
Thu 03:41:36 AM 41.9931 -97.5747 78° East 490 564 37,000 50 Climbing Minneapolis Center
Thu 03:42:36 AM 42.0214 -97.3931 78° East 490 564 37,000  Level Minneapolis Center
Thu 03:43:37 AM 42.0489 -97.2114 78° East 491 565 37,000  Level Minneapolis Center
Thu 03:44:37 AM 42.0742 -97.0278 79° East 495 570 37,000  Level Minneapolis Center
Thu 03:45:37 AM 42.1022 -96.8436 78° East 497 572 37,000  Level Minneapolis Center
Thu 03:46:37 AM 42.1303 -96.6592 78° East 498 573 37,000  Level Minneapolis Center
Thu 03:47:38 AM 42.1564 -96.4747 79° East 498 573 37,000  Level Minneapolis Center
Thu 03:48:38 AM 42.1822 -96.2908 79° East 498 573 37,000  Level Minneapolis Center
Thu 03:49:38 AM 42.2083 -96.1072 79° East 498 573 37,000  Level Minneapolis Center
Thu 03:50:38 AM 42.2344 -95.9231 79° East 498 573 37,000  Level Minneapolis Center
Thu 03:51:39 AM 42.2589 -95.7394 80° East 497 572 37,000  Level Minneapolis Center
Thu 03:52:39 AM 42.2833 -95.5539 80° East 498 573 37,000  Level Minneapolis Center
Thu 03:53:39 AM 42.3067 -95.3689 80° East 498 573 37,000  Level Minneapolis Center
Thu 03:54:39 AM 42.3311 -95.1828 80° East 499 574 37,000 50 Level Minneapolis Center
Thu 03:55:40 AM 42.3533 -94.9978 81° East 499 574 37,100  Climbing Minneapolis Center
Thu 03:56:40 AM 42.3772 -94.8139 80° East 498 573 37,000 -50 Descending Minneapolis Center
Thu 03:57:40 AM 42.4000 -94.6331 80° East 493 567 37,000  Level Minneapolis Center
Thu 03:58:40 AM 42.4225 -94.4503 80° East 492 566 37,000  Level Minneapolis Center
Thu 03:59:41 AM 42.4444 -94.2683 81° East 492 566 37,000  Level Minneapolis Center
Thu 04:00:41 AM 42.4669 -94.0831 81° East 492 566 37,000  Level Minneapolis Center
Thu 04:01:05 AM 42.4767 -94.0114 80° East 491 565 37,000  Level Minneapolis Center
Thu 04:02:05 AM 42.4981 -93.8325 81° East 488 562 37,000  Level Minneapolis Center
Thu 04:03:06 AM 42.5189 -93.6519 81° East 486 559 37,000  Level Minneapolis Center
Thu 04:04:06 AM 42.5406 -93.4708 81° East 487 560 37,000  Level Minneapolis Center
Thu 04:05:06 AM 42.5608 -93.2892 81° East 488 562 37,000  Level Minneapolis Center
Thu 04:06:16 AM 42.5858 -93.0683 81° East 496 571 37,000  Level Chicago Center
Thu 04:07:16 AM 42.6047 -92.8861 82° East 496 571 37,000  Level Chicago Center
Thu 04:08:16 AM 42.6253 -92.7039 81° East 496 571 37,000  Level Chicago Center
Thu 04:09:17 AM 42.6444 -92.5211 82° East 495 570 37,000  Level Chicago Center
Thu 04:10:17 AM 42.6653 -92.3414 81° East 488 562 37,000  Level Chicago Center
Thu 04:11:17 AM 42.6844 -92.1594 82° East 490 564 37,000  Level Chicago Center
Thu 04:12:17 AM 42.7033 -91.9767 82° East 495 570 37,000  Level Chicago Center
Thu 04:13:18 AM 42.7247 -91.7572 82° East 496 571 37,000  Level Chicago Center
Thu 04:14:18 AM 42.7400 -91.6028 82° East 492 566 37,000  Level Chicago Center
Thu 04:15:18 AM 42.7583 -91.4067 83° East 497 572 37,000  Level Chicago Center
Thu 04:16:19 AM 42.7747 -91.2214 83° East 499 574 37,000  Level Chicago Center
Thu 04:17:19 AM 42.7917 -91.0383 83° East 494 568 37,000  Level Chicago Center
Thu 04:18:19 AM 42.8083 -90.8556 83° East 490 564 37,000  Level Chicago Center
Thu 04:19:20 AM 42.8256 -90.6714 83° East 491 565 37,000  Level Chicago Center
Thu 04:20:20 AM 42.8400 -90.4883 84° East 489 563 37,000  Level Chicago Center
Thu 04:21:20 AM 42.8544 -90.3044 84° East 490 564 37,000  Level Chicago Center
Thu 04:22:21 AM 42.8717 -90.1233 83° East 489 563 37,000  Level Chicago Center
Thu 04:23:21 AM 42.8878 -89.9044 84° East 492 566 37,000  Level Chicago Center
Thu 04:24:21 AM 42.9061 -89.7219 82° East 491 565 37,000  Level Chicago Center
Thu 04:25:22 AM 42.9219 -89.5367 83° East 493 567 37,000  Level Chicago Center
Thu 04:26:22 AM 42.9347 -89.3533 85° East 490 564 37,000  Level Chicago Center
Thu 04:27:22 AM 42.9506 -89.1686 83° East 490 564 37,000  Level Chicago Center
Thu 04:28:23 AM 42.9650 -88.9864 84° East 489 563 37,000  Level Chicago Center
Thu 04:29:23 AM 42.9792 -88.8003 84° East 493 567 37,000  Level Chicago Center
Thu 04:30:23 AM 42.9922 -88.6197 84° East 488 562 37,000  Level Chicago Center
Thu 04:31:24 AM 43.0053 -88.4367 84° East 487 560 37,000  Level Chicago Center
Thu 04:32:24 AM 43.0169 -88.2553 85° East 486 559 37,000  Level Chicago Center
Thu 04:33:24 AM 43.0286 -88.0722 85° East 487 560 37,000  Level Chicago Center
Thu 04:34:25 AM 43.0408 -87.8869 85° East 492 566 37,000  Level Chicago Center
Thu 04:35:25 AM 43.0522 -87.7036 85° East 489 563 37,000  Level Chicago Center
Thu 04:36:25 AM 43.0633 -87.5181 85° East 489 563 37,000  Level Chicago Center
Thu 04:37:26 AM 43.0756 -87.3169 85° East 494 568 37,000  Level Chicago Center
Thu 04:38:26 AM 43.0861 -87.1283 86° East 496 571 37,000  Level Chicago Center
Thu 04:39:26 AM 43.0967 -86.9406 86° East 497 572 37,000  Level Chicago Center
Thu 04:40:27 AM 43.1075 -86.7519 85° East 497 572 37,000  Level Chicago Center
Thu 04:41:27 AM 43.1175 -86.5628 86° East 495 570 37,000  Level Chicago Center
Thu 04:42:28 AM 43.1281 -86.3750 86° East 495 570 37,000  Level Chicago Center
Thu 04:43:28 AM 43.1367 -86.1817 86° East 504 580 37,000  Level Chicago Center
Thu 04:44:28 AM 43.1467 -85.9875 86° East 501 577 37,000  Level Chicago Center
Thu 04:45:29 AM 43.1558 -85.7944 86° East 500 575 37,000  Level Chicago Center
Thu 04:46:29 AM 43.1647 -85.6022 86° East 500 575 37,000  Level Chicago Center
Thu 04:47:29 AM 43.1731 -85.4128 86° East 500 575 37,000  Level Chicago Center
Thu 04:48:30 AM 43.1819 -85.2208 86° East 501 577 37,000  Level Chicago Center
Thu 04:49:30 AM 43.1903 -85.0317 86° East 501 577 37,000  Level Chicago Center
Thu 04:50:31 AM 43.1975 -84.8478 87° East 488 562 37,000  Level Chicago Center
Thu 04:51:31 AM 43.2047 -84.6636 87° East 486 559 37,000  Level Chicago Center
Thu 04:52:31 AM 43.2117 -84.4794 87° East 487 560 37,000  Level Chicago Center
Thu 04:53:15 AM 43.2158 -84.3308 88° East 486 559 37,000  Level Cleveland Center
Thu 04:54:15 AM 43.2225 -84.1447 87° East 487 560 37,000  Level Cleveland Center
Thu 04:55:16 AM 43.2258 -83.9556 89° East 487 560 37,000  Level Cleveland Center
Thu 04:56:16 AM 43.2306 -83.7683 88° East 488 562 37,000  Level Cleveland Center
Thu 04:57:17 AM 43.2350 -83.5819 88° East 488 562 37,000  Level Cleveland Center
Thu 04:58:17 AM 43.2403 -83.3933 88° East 494 568 37,000 -595 Level Cleveland Center
Thu 04:59:18 AM 43.2436 -83.2058 89° East 494 568 35,800 -1,339 Descending Cleveland Center
Thu 05:00:18 AM 43.2492 -83.0156 88° East 498 573 34,300 -1,450 Descending Cleveland Center
Thu 05:01:18 AM 43.2531 -82.8225 88° East 503 579 32,900 -1,190 Descending Cleveland Center
Thu 05:02:19 AM 43.2633 -82.6381 86° East 486 559 31,900 -992 Descending Cleveland Center
Thu 05:03:19 AM 43.2806 -82.4608 82° East 473 544 30,900 -992 Descending Cleveland Center
Thu 05:04:20 AM 43.2967 -82.2825 83° East 473 544 29,900 -943 Descending Cleveland Center
Thu 05:05:39 AM 43.3000 -82.0333 89° East 450 518 28,700 -906 Descending Toronto Center
Thu 05:06:39 AM 43.3333 -81.8833 73° East 430 495 27,800 -950 Descending Toronto Center
Thu 05:07:39 AM 43.3333 -81.7000 90° East 440 506 26,800 -1,000 Descending Toronto Center
Thu 05:08:39 AM 43.3500 -81.5333 82° East 450 518 25,800 -1,000 Descending Toronto Center
Thu 05:09:39 AM 43.3667 -81.3833 81° East 450 518 24,800 -1,100 Descending Toronto Center
Thu 05:10:39 AM 43.3667 -81.2167 90° East 440 506 23,600 -1,200 Descending Toronto Center
Thu 05:11:39 AM 43.3833 -81.0333 83° East 430 495 22,400 -1,150 Descending Toronto Center
Thu 05:12:39 AM 43.4000 -80.9000 80° East 420 483 21,300 -1,200 Descending Toronto Center
Thu 05:13:39 AM 43.4333 -80.7167 76° East 420 483 20,000 -1,200 Descending Toronto Center
Thu 05:14:39 AM 43.4333 -80.5667 90° East 410 472 18,900 -1,500 Descending Toronto Center
Thu 05:15:39 AM 43.4500 -80.4167 81° East 400 460 17,000 -1,900 Descending Toronto Center
Thu 05:16:39 AM 43.4667 -80.2833 80° East 390 449 15,100 -1,650 Descending Toronto Center
Thu 05:17:39 AM 43.5167 -80.1333 65° Northeast 370 426 13,700 -1,450 Descending Toronto Center
Thu 05:18:39 AM 43.5333 -80.0167 79° East 350 403 12,200 -1,450 Descending Toronto Center
Thu 05:19:39 AM 43.6000 -79.9333 42° Northeast 320 368 10,800 -1,100 Descending Toronto Center
Thu 05:20:39 AM 43.6500 -79.8333 55° Northeast 300 345 10,000 -1,250 Descending Toronto Center
Thu 05:21:39 AM 43.7000 -79.7667 44° Northeast 280 322 8,300 -1,600 Descending Toronto Center
Thu 05:22:39 AM 43.7500 -79.6833 50° Northeast 280 322 6,800 -1,600 Descending Toronto Center
Thu 05:23:39 AM 43.8167 -79.6167 36° Northeast 280 322 5,100 -1,100 Descending Toronto Center
Thu 05:24:39 AM 43.8500 -79.5333 61° Northeast 250 288 4,600 -750 Descending Toronto Center
Thu 05:25:39 AM 43.8667 -79.4667 71° East 220 253 3,600 -800 Descending Toronto Center
Thu 05:26:39 AM 43.8167 -79.4167 144° Southeast 190 219 3,000 -300 Descending Toronto Center
Thu 05:27:39 AM 43.7833 -79.4667 227° Southwest 170 196 3,000 -100 Level Toronto Center
Thu 05:28:39 AM 43.7500 -79.5167 227° Southwest 160 184 2,800 -550 Descending Toronto Center
Thu 05:29:39 AM 43.7333 -79.5667 245° Southwest 150 173 1,900 -850 Descending Toronto Center
Thu 05:30:39 AM 43.7000 -79.5833 200° South 140 161 1,100 -700 Descending Toronto Center
Thu 05:31:39 AM 43.6833 -79.6333 245° Southwest 130 150 500 -600 Descending Toronto Center

Login

Don't have an account? Register now (free) for customized features, flight alerts, and more!